Time;durP1;ratioP1;P1;durP2;ratioP2;P2;SDS_P1;SDS_P2;PMS_P1;PMS_P2;Temp;Humidity;BMP_temperature;BMP_pressure;BME280_temperature;BME280_humidity;BME280_pressure;Samples;Min_cycle;Max_cycle;Signal;HPM_P1;HPM_P2
2022/11/26 00:01:13;;;;;;;5.90;4.00;;;;;;;-1.01;89.67;99253.50;101953;1296;62927;-24
2022/11/26 00:03:41;;;;;;;6.00;4.10;;;;;;;-0.83;89.41;99255.85;102005;1303;76284;-24
2022/11/26 00:06:24;;;;;;;6.40;4.10;;;;;;;-0.54;88.23;99256.97;101957;1304;75365;-24
2022/11/26 00:08:52;;;;;;;6.30;4.00;;;;;;;-0.40;87.07;99257.89;101899;1303;72962;-24
2022/11/26 00:11:19;;;;;;;8.10;4.40;;;;;;;-0.66;87.64;99260.09;101955;1302;62077;-24
2022/11/26 00:13:47;;;;;;;9.80;6.00;;;;;;;-0.78;88.75;99261.16;101993;1303;61712;-24
2022/11/26 00:16:14;;;;;;;9.30;4.80;;;;;;;-0.99;90.36;99266.73;102019;1302;76598;-24
2022/11/26 00:18:42;;;;;;;10.30;6.50;;;;;;;-0.91;91.00;99266.52;102143;1302;75654;-24
2022/11/26 00:21:16;;;;;;;10.70;6.50;;;;;;;-0.58;90.42;99266.33;101993;1300;72855;-24
2022/11/26 00:23:43;;;;;;;13.60;7.50;;;;;;;-0.73;89.46;99266.61;101894;1305;63345;-24
2022/11/26 00:26:15;;;;;;;11.70;6.10;;;;;;;-0.81;90.14;99268.56;102030;1302;62623;-24
2022/11/26 00:28:56;;;;;;;11.40;6.80;;;;;;;-0.87;89.69;99267.92;101969;1299;76122;-24
2022/11/26 00:31:24;;;;;;;9.30;5.70;;;;;;;-1.09;90.77;99272.14;101961;1303;76747;-24
2022/11/26 00:33:52;;;;;;;11.60;6.10;;;;;;;-0.86;90.50;99273.51;102122;1295;74267;-24
2022/11/26 00:36:25;;;;;;;11.40;7.20;;;;;;;-0.61;88.82;99273.23;102139;1295;62652;-24
2022/11/26 00:38:56;;;;;;;12.30;7.10;;;;;;;-0.89;89.16;99277.15;101953;1302;62974;-24
2022/11/26 00:41:24;;;;;;;9.70;6.30;;;;;;;-1.02;89.83;99282.66;102024;1303;76320;-24
2022/11/26 00:43:52;;;;;;;10.50;5.60;;;;;;;-1.06;90.31;99290.46;101966;1304;76748;-24
2022/11/26 00:46:21;;;;;;;10.90;5.90;;;;;;;-0.71;89.36;99282.23;101883;1302;73865;-24
2022/11/26 00:48:49;;;;;;;10.10;6.10;;;;;;;-0.77;88.50;99286.35;102068;1301;61594;-24
2022/11/26 00:51:25;;;;;;;13.90;6.90;;;;;;;-0.80;88.23;99283.70;102022;1302;61562;-24
2022/11/26 00:53:55;;;;;;;11.40;6.50;;;;;;;-0.97;89.27;99287.11;101986;1304;76111;-24
2022/11/26 00:56:22;;;;;;;12.40;5.90;;;;;;;-1.05;89.51;99291.27;101932;1301;76864;-24
2022/11/26 00:58:50;;;;;;;11.90;6.70;;;;;;;-1.05;90.00;99289.75;101980;1292;75257;-24
2022/11/26 01:01:20;;;;;;;10.20;6.40;;;;;;;-0.49;88.65;99291.43;102029;1302;62722;-24
2022/11/26 01:03:48;;;;;;;14.50;8.40;;;;;;;-0.66;87.42;99292.15;101924;1302;61771;-24
2022/11/26 01:06:23;;;;;;;11.80;6.30;;;;;;;-1.01;88.98;99288.63;102035;1298;76447;-24
2022/11/26 01:08:50;;;;;;;6.70;4.80;;;;;;;-1.04;89.70;99292.97;101904;1305;75620;-24
2022/11/26 01:11:20;;;;;;;15.40;8.90;;;;;;;-0.85;89.21;99291.86;101981;1302;75253;-24
2022/11/26 01:13:48;;;;;;;10.40;6.80;;;;;;;-0.71;88.69;99296.05;101941;1304;61730;-24
2022/11/26 01:16:27;;;;;;;9.80;5.60;;;;;;;-0.28;87.18;99297.25;101857;1305;61609;-24
2022/11/26 01:18:56;;;;;;;12.70;7.70;;;;;;;-0.42;86.35;99293.44;101915;1305;75446;-24
2022/11/26 01:21:25;;;;;;;9.70;6.20;;;;;;;-0.75;87.90;99295.33;101982;1307;76311;-24
2022/11/26 01:23:52;;;;;;;13.30;8.10;;;;;;;-1.22;89.37;99291.10;101949;1303;75268;-24
2022/11/26 01:26:26;;;;;;;19.50;9.80;;;;;;;-1.22;91.05;99291.61;101883;1302;63771;-24
2022/11/26 01:28:54;;;;;;;10.60;6.30;;;;;;;-0.62;89.26;99294.73;101892;1302;61126;-25
2022/11/26 01:31:23;;;;;;;15.10;8.50;;;;;;;-0.50;88.07;99297.96;102090;1301;76141;-24
2022/11/26 01:33:52;;;;;;;8.80;4.50;;;;;;;-0.68;88.06;99303.45;101901;1306;77201;-24
2022/11/26 01:36:27;;;;;;;13.40;6.40;;;;;;;-0.87;89.19;99303.69;102101;1301;75288;-24
2022/11/26 01:39:02;;;;;;;13.60;7.50;;;;;;;-1.04;89.99;99307.81;101943;1301;61138;-24
2022/11/26 01:41:52;;;;;;;14.30;8.70;;;;;;;-0.83;89.44;99307.33;101893;1300;61906;-24
2022/11/26 01:44:21;;;;;;;16.40;8.90;;;;;;;-0.77;89.03;99314.64;101995;1300;76399;-24
2022/11/26 01:46:50;;;;;;;13.80;7.80;;;;;;;-0.75;88.51;99315.29;101957;1308;75908;-24
2022/11/26 01:49:21;;;;;;;20.80;10.30;;;;;;;-0.76;88.41;99317.00;102073;1300;75236;-25
2022/11/26 01:51:59;;;;;;;16.20;8.70;;;;;;;-1.00;89.29;99318.23;101956;1299;62083;-24
2022/11/26 01:54:26;;;;;;;14.80;7.60;;;;;;;-0.96;90.04;99318.63;101786;1306;61684;-24
2022/11/26 01:56:54;;;;;;;14.70;7.80;;;;;;;-0.66;88.90;99319.93;101891;1302;76493;-23
2022/11/26 01:59:29;;;;;;;13.70;8.00;;;;;;;-0.49;87.81;99313.97;102015;1300;75669;-23
2022/11/26 02:01:57;;;;;;;16.50;6.90;;;;;;;-0.80;88.21;99319.50;102002;1308;73940;-23
2022/11/26 02:04:26;;;;;;;14.30;7.60;;;;;;;-0.95;89.06;99319.94;101950;1303;62125;-23
2022/11/26 02:06:55;;;;;;;14.70;9.00;;;;;;;-1.15;90.14;99324.64;101918;1306;61722;-23
2022/11/26 02:09:22;;;;;;;16.10;8.50;;;;;;;-1.04;90.39;99321.94;102091;1300;76515;-23
2022/11/26 02:11:50;;;;;;;18.10;9.80;;;;;;;-0.63;89.01;99321.88;102036;1302;74740;-24
2022/11/26 02:14:44;;;;;;;17.20;9.40;;;;;;;-0.58;87.96;99321.42;102033;1301;73995;-23
2022/11/26 02:17:33;;;;;;;19.40;8.90;;;;;;;-1.03;89.26;99321.20;101937;1301;61841;-24
2022/11/26 02:20:16;;;;;;;17.70;9.10;;;;;;;-1.19;90.29;99326.28;102088;1300;62644;-24
2022/11/26 02:23:02;;;;;;;16.40;8.10;;;;;;;-0.96;90.42;99327.98;102018;1302;75390;-24
2022/11/26 02:25:54;;;;;;;14.80;8.90;;;;;;;-0.76;89.05;99328.92;102003;1305;76853;-24
2022/11/26 02:28:46;;;;;;;18.10;9.40;;;;;;;-0.66;88.15;99332.55;101993;1288;74892;-24
2022/11/26 02:31:26;;;;;;;20.00;10.10;;;;;;;-1.21;89.84;99325.84;102009;1304;61188;-24
2022/11/26 02:33:57;;;;;;;16.90;8.70;;;;;;;-1.37;90.99;99333.27;101879;1305;62959;-24
2022/11/26 02:36:29;;;;;;;12.20;7.30;;;;;;;-1.10;91.10;99338.61;101925;1296;76031;-24
2022/11/26 02:38:56;;;;;;;13.90;7.70;;;;;;;-0.80;89.29;99335.70;101974;1308;76935;-24
2022/11/26 02:41:23;;;;;;;14.60;8.50;;;;;;;-0.74;89.05;99335.02;102066;1300;73098;-23
2022/11/26 02:43:51;;;;;;;15.60;8.30;;;;;;;-1.01;89.39;99345.88;101923;1300;61285;-24
2022/11/26 02:46:18;;;;;;;18.20;10.00;;;;;;;-1.05;90.15;99346.66;101994;1294;62036;-24
2022/11/26 02:48:47;;;;;;;10.70;7.10;;;;;;;-1.38;91.08;99344.01;101867;1302;76451;-24
2022/11/26 02:51:21;;;;;;;17.20;9.20;;;;;;;-1.04;90.99;99344.59;101972;1301;76684;-24
2022/11/26 02:53:48;;;;;;;;;;;;;;;-0.89;89.60;99346.71;101911;1302;73913;-24
2022/11/26 02:56:26;;;;;;;17.90;10.00;;;;;;;-0.95;89.45;99346.38;101997;1302;61133;-23
2022/11/26 02:58:55;;;;;;;13.20;7.80;;;;;;;-1.05;89.45;99347.17;101800;1305;61094;-24
2022/11/26 03:01:28;;;;;;;11.90;6.80;;;;;;;-1.18;90.29;99347.88;101870;1304;76138;-24
2022/11/26 03:03:57;;;;;;;15.30;7.80;;;;;;;-1.15;90.61;99350.01;102024;1300;76550;-24
2022/11/26 03:06:27;;;;;;;12.50;6.50;;;;;;;-0.70;88.87;99352.11;101942;1304;72918;-24
2022/11/26 03:08:54;;;;;;;15.50;8.40;;;;;;;-0.54;87.82;99351.83;101913;1301;63020;-24
2022/11/26 03:11:21;;;;;;;13.60;8.10;;;;;;;-0.87;87.86;99347.35;101951;1304;61812;-24
2022/11/26 03:13:49;;;;;;;13.40;8.00;;;;;;;-1.05;88.77;99350.75;102042;1300;76090;-24
2022/11/26 03:16:17;;;;;;;13.70;8.30;;;;;;;-1.37;90.08;99351.30;101910;1300;76638;-24
2022/11/26 03:18:44;;;;;;;17.90;8.80;;;;;;;-1.24;90.34;99350.27;101995;1297;73848;-23
2022/11/26 03:21:12;;;;;;;16.60;7.90;;;;;;;-0.79;88.34;99348.13;101947;1302;61845;-24
2022/11/26 03:23:39;;;;;;;19.20;9.80;;;;;;;-0.71;87.47;99347.72;101866;1301;62756;-24
2022/11/26 03:26:07;;;;;;;14.90;9.00;;;;;;;-0.98;87.94;99347.84;101980;1302;76376;-24
2022/11/26 03:28:34;;;;;;;18.00;8.30;;;;;;;-1.14;88.91;99347.59;101934;1303;75673;-23
2022/11/26 03:31:02;;;;;;;15.20;8.70;;;;;;;-1.34;89.67;99354.14;101939;1301;74057;-24
2022/11/26 03:33:29;;;;;;;10.80;6.00;;;;;;;-1.10;89.34;99355.86;101919;1300;62092;-24
2022/11/26 03:35:57;;;;;;;14.40;8.50;;;;;;;-0.90;88.55;99353.23;101048;1294;1277984;-24
2022/11/26 03:38:24;;;;;;;16.40;9.30;;;;;;;-0.93;87.85;99352.97;101918;1302;76426;-24
2022/11/26 03:40:59;;;;;;;16.80;7.90;;;;;;;-1.03;88.16;99356.69;101983;1300;76642;-24
2022/11/26 03:43:27;;;;;;;15.40;7.70;;;;;;;-1.22;88.95;99359.25;101964;1297;75214;-24
2022/11/26 03:45:54;;;;;;;18.20;9.10;;;;;;;-1.41;89.85;99356.86;101989;1302;61126;-24
2022/11/26 03:48:22;;;;;;;13.00;7.00;;;;;;;-1.32;89.95;99359.01;101948;1301;62851;-24
2022/11/26 03:50:49;;;;;;;12.40;6.70;;;;;;;-1.01;88.74;99359.16;102026;1300;76586;-24
2022/11/26 03:53:16;;;;;;;10.30;6.60;;;;;;;-0.87;87.51;99356.38;102068;1298;76639;-24
2022/11/26 03:55:44;;;;;;;13.20;7.40;;;;;;;-1.07;87.54;99358.66;102027;1300;75024;-24
2022/11/26 03:58:11;;;;;;;13.70;7.90;;;;;;;-1.34;88.56;99359.92;101989;1303;61378;-24
2022/11/26 04:00:39;;;;;;;11.00;6.40;;;;;;;-1.49;89.41;99360.66;102009;1302;63110;-24
2022/11/26 04:03:07;;;;;;;13.50;8.10;;;;;;;-1.51;90.14;99360.21;102097;1302;76080;-24
2022/11/26 04:05:34;;;;;;;13.50;7.70;;;;;;;-1.03;88.81;99360.25;102064;1301;76821;-24
2022/11/26 04:08:02;;;;;;;11.50;6.90;;;;;;;-1.07;87.40;99361.21;101949;1303;75317;-24
2022/11/26 04:10:29;;;;;;;14.10;7.80;;;;;;;-1.11;87.30;99363.88;102059;1302;61796;-24
2022/11/26 04:12:57;;;;;;;12.90;7.20;;;;;;;-1.32;87.80;99365.98;102083;1302;61658;-24
2022/11/26 04:15:24;;;;;;;12.80;7.60;;;;;;;-1.43;88.69;99369.69;102072;1301;76381;-24
2022/11/26 04:17:52;;;;;;;12.00;5.90;;;;;;;-1.54;89.39;99367.95;102131;1297;77573;-24
2022/11/26 04:20:19;;;;;;;11.40;6.50;;;;;;;-1.19;88.31;99373.83;102122;1301;73919;-24
2022/11/26 04:22:47;;;;;;;11.80;7.00;;;;;;;-1.07;87.02;99367.84;102187;1301;61269;-24
2022/11/26 04:25:14;;;;;;;10.20;7.00;;;;;;;-1.11;87.27;99370.68;101963;1301;61746;-23
2022/11/26 04:27:42;;;;;;;10.00;6.10;;;;;;;-1.31;88.21;99371.44;101963;1301;75202;-23
2022/11/26 04:30:10;;;;;;;10.20;6.60;;;;;;;-1.45;88.98;99373.86;102025;1302;76551;-24
2022/11/26 04:32:38;;;;;;;8.40;6.20;;;;;;;-1.48;89.68;99375.96;101959;1297;74064;-24
2022/11/26 04:35:07;;;;;;;10.00;7.00;;;;;;;-1.27;88.59;99377.11;102103;1302;62891;-24
2022/11/26 04:37:34;;;;;;;10.10;6.20;;;;;;;-1.28;88.08;99378.15;102082;1301;61196;-24
2022/11/26 04:40:02;;;;;;;8.20;5.70;;;;;;;-1.30;88.45;99376.83;101929;1300;75406;-24
2022/11/26 04:42:30;;;;;;;14.00;7.70;;;;;;;-1.43;88.83;99382.65;102153;1301;76591;-24
2022/11/26 04:44:57;;;;;;;8.50;5.60;;;;;;;-1.54;89.56;99383.63;102127;1301;75232;-24
2022/11/26 04:47:24;;;;;;;11.20;6.60;;;;;;;-1.18;88.93;99385.86;102073;1300;61152;-24
2022/11/26 04:49:52;;;;;;;15.00;7.30;;;;;;;-1.01;87.46;99378.10;102111;1295;61736;-24
2022/11/26 04:52:19;;;;;;;8.90;5.60;;;;;;;-1.12;87.40;99382.16;102201;1302;75068;-24
2022/11/26 04:54:47;;;;;;;11.50;6.80;;;;;;;-1.43;88.45;99381.45;102160;1302;75444;-24
2022/11/26 04:57:14;;;;;;;9.90;6.30;;;;;;;-1.60;89.15;99382.23;102107;1302;75360;-24
2022/11/26 04:59:42;;;;;;;11.90;7.10;;;;;;;-1.37;89.22;99380.28;102036;1301;61177;-24
2022/11/26 05:02:09;;;;;;;8.50;5.60;;;;;;;-0.97;87.31;99378.83;102091;1302;62592;-24
2022/11/26 05:04:37;;;;;;;10.60;6.80;;;;;;;-1.05;86.57;99382.80;102177;1302;75330;-25
2022/11/26 05:07:04;;;;;;;10.80;5.30;;;;;;;-1.16;86.73;99388.54;102190;1301;76764;-25
2022/11/26 05:09:32;;;;;;;10.40;5.50;;;;;;;-1.56;88.06;99385.36;102147;1301;73476;-24
2022/11/26 05:11:59;;;;;;;10.40;5.60;;;;;;;-1.67;89.25;99390.75;102173;1294;61990;-24
2022/11/26 05:14:27;;;;;;;8.40;5.20;;;;;;;-1.48;89.21;99392.48;102060;1291;62573;-24
2022/11/26 05:16:54;;;;;;;10.50;5.80;;;;;;;-1.06;87.28;99397.30;102201;1300;76522;-24
2022/11/26 05:19:22;;;;;;;11.20;6.00;;;;;;;-0.88;86.32;99402.77;102136;1301;76844;-24
2022/11/26 05:21:49;;;;;;;10.00;6.10;;;;;;;-0.94;85.91;99404.33;102199;1294;74213;-24
2022/11/26 05:24:19;;;;;;;10.90;6.00;;;;;;;-1.18;86.72;99405.81;102124;1301;62174;-25
2022/11/26 05:26:46;;;;;;;13.00;7.10;;;;;;;-1.53;88.09;99407.44;102132;1294;61942;-24
2022/11/26 05:29:21;;;;;;;9.00;5.50;;;;;;;-1.67;88.86;99410.00;102051;1303;75447;-24
2022/11/26 05:31:48;;;;;;;10.60;6.00;;;;;;;-1.36;88.53;99411.74;102200;1301;76905;-24
2022/11/26 05:34:16;;;;;;;8.50;5.60;;;;;;;-1.04;86.81;99414.98;102189;1302;74847;-24
2022/11/26 05:36:44;;;;;;;12.20;6.60;;;;;;;-1.07;86.46;99412.34;101947;1303;62220;-26
2022/11/26 05:39:13;;;;;;;13.80;8.00;;;;;;;-1.12;86.35;99414.68;101992;1301;63036;-24
2022/11/26 05:41:40;;;;;;;11.10;7.20;;;;;;;-1.41;87.34;99406.92;101997;1304;76244;-24
2022/11/26 05:44:08;;;;;;;9.10;5.90;;;;;;;-1.60;88.25;99411.35;102030;1300;75838;-24
2022/11/26 05:46:36;;;;;;;10.20;5.90;;;;;;;-1.43;88.06;99411.25;102111;1302;75112;-24
2022/11/26 05:49:04;;;;;;;11.80;6.80;;;;;;;-1.06;86.78;99417.61;102172;1301;61599;-24
2022/11/26 05:51:33;;;;;;;10.30;5.80;;;;;;;-1.00;86.04;99422.36;102198;1301;61536;-25
2022/11/26 05:54:00;;;;;;;8.80;5.00;;;;;;;-1.10;86.32;99422.14;102004;1301;76292;-24
2022/11/26 05:56:28;;;;;;;11.80;6.80;;;;;;;-1.39;87.10;99421.19;102020;1305;76591;-24
2022/11/26 05:58:55;;;;;;;10.00;6.00;;;;;;;-1.62;88.34;99425.73;102140;1300;74035;-24
2022/11/26 06:01:23;;;;;;;13.70;7.10;;;;;;;-1.46;88.37;99425.98;102131;1301;62518;-24
2022/11/26 06:03:50;;;;;;;13.30;7.90;;;;;;;-1.20;87.19;99428.87;102110;1301;61914;-25
2022/11/26 06:06:18;;;;;;;12.50;6.30;;;;;;;-0.96;85.89;99437.10;102199;1301;76347;-25
2022/11/26 06:08:46;;;;;;;14.80;8.10;;;;;;;-1.10;85.79;99436.60;102185;1298;75569;-24
2022/11/26 06:11:13;;;;;;;12.40;7.40;;;;;;;-1.32;86.77;99436.36;101960;1303;75402;-24
2022/11/26 06:13:41;;;;;;;11.80;6.90;;;;;;;-1.48;87.62;99437.10;102047;1300;62124;-24
2022/11/26 06:16:08;;;;;;;10.30;6.30;;;;;;;-1.50;88.04;99441.25;102155;1301;61817;-24
2022/11/26 06:18:37;;;;;;;11.90;7.60;;;;;;;-0.89;86.61;99445.59;102098;1302;76416;-24
2022/11/26 06:21:06;;;;;;;12.60;7.30;;;;;;;-0.62;84.46;99441.93;102078;1302;75698;-24
2022/11/26 06:23:33;;;;;;;12.90;7.10;;;;;;;-0.83;84.92;99449.66;101912;1305;74157;-24
2022/11/26 06:26:05;;;;;;;11.00;6.30;;;;;;;-0.91;85.06;99452.79;102233;1301;61062;-24
2022/11/26 06:28:33;;;;;;;14.50;8.20;;;;;;;-1.16;86.41;99452.45;102100;1304;62601;-25
2022/11/26 06:31:00;;;;;;;13.90;8.00;;;;;;;-1.34;86.98;99450.73;102161;1301;76291;-25
2022/11/26 06:33:28;;;;;;;8.60;5.20;;;;;;;-1.23;87.35;99451.96;102135;1302;76698;-24
2022/11/26 06:36:02;;;;;;;14.60;8.10;;;;;;;-0.63;85.72;99457.15;102122;1294;75460;-24
2022/11/26 06:38:29;;;;;;;12.00;7.00;;;;;;;-0.48;83.92;99457.73;102089;1304;61245;-24
2022/11/26 06:40:59;;;;;;;14.00;8.20;;;;;;;-0.74;84.07;99461.03;102194;1293;61518;-24
2022/11/26 06:43:26;;;;;;;13.00;7.50;;;;;;;-1.01;85.35;99465.02;102118;1301;76394;-25
2022/11/26 06:45:54;;;;;;;11.80;7.10;;;;;;;-1.30;86.53;99467.63;102159;1302;75253;-25
2022/11/26 06:48:23;;;;;;;11.60;6.60;;;;;;;-1.39;87.58;99471.97;102027;1302;74100;-24
2022/11/26 06:50:51;;;;;;;12.70;7.20;;;;;;;-0.96;86.83;99477.98;102116;1300;61565;-24
2022/11/26 06:53:19;;;;;;;12.50;7.30;;;;;;;-0.50;84.74;99477.91;102176;1295;61972;-24
2022/11/26 06:55:46;;;;;;;12.20;6.60;;;;;;;-0.69;84.38;99480.48;102147;1293;76468;-24
2022/11/26 06:58:14;;;;;;;11.80;7.80;;;;;;;-0.72;84.53;99489.95;102162;1300;76823;-25
2022/11/26 07:00:41;;;;;;;14.80;8.50;;;;;;;-1.04;85.66;99492.01;102081;1301;74187;-25
2022/11/26 07:03:09;;;;;;;14.30;8.60;;;;;;;-1.14;86.74;99493.48;102009;1304;62113;-24
2022/11/26 07:05:37;;;;;;;9.20;5.10;;;;;;;-1.18;87.13;99494.26;102105;1301;63112;-24
2022/11/26 07:08:04;;;;;;;11.80;6.80;;;;;;;-0.79;85.93;99494.42;102122;1294;74605;-24
2022/11/26 07:10:32;;;;;;;13.00;7.60;;;;;;;-0.39;84.36;99495.17;102143;1300;76614;-24
2022/11/26 07:12:59;;;;;;;11.80;7.60;;;;;;;-0.52;83.54;99497.06;102008;1295;75223;-26
2022/11/26 07:15:27;;;;;;;13.20;8.30;;;;;;;-0.68;84.12;99498.20;102141;1302;62044;-24
2022/11/26 07:17:54;;;;;;;10.30;6.20;;;;;;;-1.04;85.50;99499.34;101937;1303;62623;-25
2022/11/26 07:20:22;;;;;;;11.50;6.50;;;;;;;-1.24;86.79;99499.00;102225;1301;76393;-24
2022/11/26 07:22:49;;;;;;;11.10;7.10;;;;;;;-1.39;87.73;99499.05;102052;1304;76595;-24
2022/11/26 07:25:17;;;;;;;9.70;5.80;;;;;;;-0.92;86.62;99506.02;102178;1294;75220;-24
2022/11/26 07:27:44;;;;;;;9.60;5.50;;;;;;;-0.52;84.63;99510.89;101988;1301;61856;-24
2022/11/26 07:30:12;;;;;;;11.70;7.20;;;;;;;-0.44;83.97;99512.87;102122;1294;62040;-24
2022/11/26 07:32:40;;;;;;;9.80;6.10;;;;;;;-0.61;84.31;99513.53;102070;1301;74514;-24
2022/11/26 07:35:15;;;;;;;13.00;7.60;;;;;;;-1.04;85.61;99512.45;102122;1294;75498;-24
2022/11/26 07:37:42;;;;;;;8.00;4.60;;;;;;;-1.31;87.35;99513.67;102184;1301;75231;-24
2022/11/26 07:40:11;;;;;;;10.40;7.00;;;;;;;-1.03;87.28;99511.94;102109;1302;61171;-24
2022/11/26 07:42:39;;;;;;;11.00;7.40;;;;;;;-0.66;85.18;99518.09;102198;1294;62380;-24
2022/11/26 07:45:07;;;;;;;10.50;6.40;;;;;;;-0.63;84.38;99519.89;102170;1300;76452;-24
2022/11/26 07:47:35;;;;;;;10.70;6.00;;;;;;;-0.63;84.59;99524.98;102164;1301;76508;-24
2022/11/26 07:50:03;;;;;;;10.30;6.60;;;;;;;-0.74;84.88;99527.36;102204;1301;75090;-25
2022/11/26 07:52:30;;;;;;;10.90;6.30;;;;;;;-0.98;85.79;99523.04;101899;1304;61220;-23
2022/11/26 07:54:58;;;;;;;12.60;6.70;;;;;;;-1.04;86.42;99521.52;102135;1301;62859;-24
2022/11/26 07:57:25;;;;;;;11.30;6.50;;;;;;;-0.71;85.68;99525.58;102118;1294;76376;-24
2022/11/26 07:59:53;;;;;;;9.10;5.80;;;;;;;-0.57;84.30;99528.25;101948;1301;76539;-24
2022/11/26 08:02:20;;;;;;;9.00;6.30;;;;;;;-0.57;83.98;99527.07;102048;1297;75154;-24
2022/11/26 08:04:53;;;;;;;13.10;7.30;;;;;;;-0.54;84.03;99530.21;102099;1295;61741;-24
2022/11/26 08:07:21;;;;;;;9.20;6.10;;;;;;;-0.64;84.30;99532.05;102078;1294;61828;-24
2022/11/26 08:09:55;;;;;;;9.80;5.90;;;;;;;-0.92;85.58;99530.74;102161;1295;76499;-24
2022/11/26 08:12:23;;;;;;;8.90;5.50;;;;;;;-0.78;85.57;99528.98;102190;1300;76703;-24
2022/11/26 08:14:50;;;;;;;8.90;5.50;;;;;;;-0.25;83.54;99528.90;102107;1293;73981;-24
2022/11/26 08:17:17;;;;;;;9.10;5.90;;;;;;;-0.10;81.99;99528.95;102193;1301;61605;-24
2022/11/26 08:19:45;;;;;;;8.20;5.00;;;;;;;-0.06;81.80;99527.66;102161;1301;62709;-24
2022/11/26 08:22:12;;;;;;;9.90;6.10;;;;;;;-0.13;81.76;99527.52;102127;1301;75489;-24
2022/11/26 08:24:40;;;;;;;8.00;4.90;;;;;;;-0.34;82.76;99531.52;101938;1298;75824;-24
2022/11/26 08:27:07;;;;;;;8.80;4.90;;;;;;;-0.50;82.80;99532.49;101977;1294;74217;-24
2022/11/26 08:29:36;;;;;;;7.80;5.10;;;;;;;-0.76;84.15;99532.52;101920;1296;61256;-24
2022/11/26 08:32:04;;;;;;;8.50;5.20;;;;;;;-0.46;83.80;99533.92;102001;1304;61579;-24
2022/11/26 08:34:32;;;;;;;8.00;5.60;;;;;;;0.09;82.39;99534.20;102194;1295;75937;-24
2022/11/26 08:37:02;;;;;;;11.60;6.00;;;;;;;0.19;81.07;99535.60;102218;1301;76619;-24
2022/11/26 08:39:30;;;;;;;9.80;6.60;;;;;;;-0.06;81.46;99538.06;102075;1301;74253;-24
2022/11/26 08:41:57;;;;;;;9.90;6.40;;;;;;;-0.28;82.57;99537.14;102061;1294;61172;-24
2022/11/26 08:44:25;;;;;;;12.70;7.90;;;;;;;-0.19;82.68;99540.66;102135;1294;61394;-24
2022/11/26 08:46:58;;;;;;;;;;;;;;;-0.31;82.97;99541.86;101985;1300;76150;-24
2022/11/26 08:49:26;;;;;;;6.20;4.00;;;;;;;-0.14;82.86;99543.92;101967;1295;75764;-24
2022/11/26 08:51:56;;;;;;;10.20;6.20;;;;;;;0.28;81.18;99545.73;102091;1301;75146;-24
2022/11/26 08:54:24;;;;;;;11.60;7.00;;;;;;;0.42;79.63;99543.77;102162;1302;61942;-24
2022/11/26 08:56:51;;;;;;;10.40;7.20;;;;;;;0.33;80.06;99546.13;102116;1294;61938;-24
2022/11/26 08:59:21;;;;;;;9.70;6.40;;;;;;;-0.00;80.90;99548.80;102113;1295;76153;-24
2022/11/26 09:01:49;;;;;;;9.30;6.20;;;;;;;0.08;81.32;99546.51;102050;1301;76586;-24
2022/11/26 09:04:17;;;;;;;7.50;4.90;;;;;;;0.12;80.66;99541.27;101992;1296;75243;-24
2022/11/26 09:06:44;;;;;;;13.80;8.00;;;;;;;0.03;81.05;99543.77;101930;1302;61180;-24
2022/11/26 09:09:12;;;;;;;9.70;6.00;;;;;;;-0.23;82.09;99555.30;101970;1301;61611;-24
2022/11/26 09:11:43;;;;;;;9.40;6.00;;;;;;;0.14;81.01;99550.43;102255;1301;76599;-25
2022/11/26 09:14:10;;;;;;;11.20;5.90;;;;;;;0.53;79.80;99553.34;102059;1298;76474;-25
2022/11/26 09:16:38;;;;;;;9.70;6.20;;;;;;;0.40;79.57;99551.54;102220;1294;75324;-24
2022/11/26 09:19:06;;;;;;;9.20;6.10;;;;;;;0.25;79.65;99554.91;101954;1301;61847;-24
2022/11/26 09:21:34;;;;;;;10.80;5.80;;;;;;;-0.11;80.80;99556.80;102112;1294;61834;-24
2022/11/26 09:24:02;;;;;;;8.80;5.60;;;;;;;-0.28;81.77;99555.43;102103;1295;76473;-25
2022/11/26 09:26:30;;;;;;;6.80;4.40;;;;;;;-0.47;83.33;99560.20;102139;1297;75647;-24
2022/11/26 09:28:58;;;;;;;8.30;4.30;;;;;;;0.02;82.40;99558.29;101942;1298;74079;-24
2022/11/26 09:31:26;;;;;;;8.40;5.10;;;;;;;0.67;79.86;99562.79;102191;1294;62599;-25
2022/11/26 09:33:55;;;;;;;9.90;5.90;;;;;;;0.60;78.86;99559.61;102148;1301;62688;-24
2022/11/26 09:36:23;;;;;;;10.20;5.40;;;;;;;0.06;80.78;99564.85;101943;1310;75400;-25
2022/11/26 09:38:54;;;;;;;9.10;6.10;;;;;;;0.09;81.12;99566.98;102156;1293;76465;-25
2022/11/26 09:41:47;;;;;;;9.20;6.20;;;;;;;-0.35;82.33;99570.14;101942;1297;74984;-24
2022/11/26 09:44:37;;;;;;;10.30;5.80;;;;;;;-0.50;83.26;99576.52;102116;1294;61237;-24
2022/11/26 09:47:36;;;;;;;6.50;4.90;;;;;;;-0.38;83.27;99574.45;102048;1295;62566;-24
2022/11/26 09:50:13;;;;;;;10.60;5.80;;;;;;;0.20;80.90;99575.02;102151;1297;76125;-24
2022/11/26 09:52:49;;;;;;;12.10;5.90;;;;;;;0.12;80.67;99580.55;102002;1297;76568;-24
2022/11/26 09:55:18;;;;;;;9.20;5.80;;;;;;;-0.04;81.14;99582.05;102001;1301;75137;-24
2022/11/26 09:57:58;;;;;;;10.50;6.50;;;;;;;-0.19;81.94;99586.25;101996;1297;62123;-24
2022/11/26 10:00:28;;;;;;;11.30;7.00;;;;;;;-0.54;83.21;99587.37;101874;1301;61802;-24
2022/11/26 10:02:56;;;;;;;14.80;7.50;;;;;;;-0.50;83.25;99591.01;102043;1301;75816;-25
2022/11/26 10:05:36;;;;;;;8.50;5.60;;;;;;;-0.45;83.06;99593.09;102051;1297;76774;-24
2022/11/26 10:08:15;;;;;;;11.10;6.60;;;;;;;0.09;81.35;99592.08;101989;1299;74268;-25
2022/11/26 10:10:51;;;;;;;10.00;6.00;;;;;;;0.22;80.42;99596.48;101873;1300;61832;-24
2022/11/26 10:13:47;;;;;;;10.80;6.30;;;;;;;0.14;80.41;99600.80;101904;1300;61804;-25
2022/11/26 10:16:17;;;;;;;10.20;6.60;;;;;;;-0.04;81.83;99599.98;102039;1301;76409;-25
2022/11/26 10:19:24;;;;;;;12.00;7.60;;;;;;;0.02;81.58;99599.64;102030;1301;76702;-24
2022/11/26 10:21:54;;;;;;;10.50;6.60;;;;;;;-0.16;81.46;99596.71;101889;1301;75265;-26
2022/11/26 10:24:30;;;;;;;12.10;6.00;;;;;;;-0.15;82.39;99599.40;101930;1298;63695;-25
2022/11/26 10:27:00;;;;;;;10.80;7.30;;;;;;;0.19;81.00;99597.08;102057;1302;61590;-26
2022/11/26 10:29:42;;;;;;;11.40;6.40;;;;;;;0.08;80.45;99602.50;101954;1303;74263;-26
2022/11/26 10:32:33;;;;;;;10.80;6.00;;;;;;;0.03;80.85;99609.85;102109;1295;76710;-24
2022/11/26 10:35:01;;;;;;;10.80;6.70;;;;;;;-0.22;81.13;99615.48;101969;1301;74940;-24
2022/11/26 10:37:29;;;;;;;12.20;7.30;;;;;;;-0.42;82.19;99611.09;102139;1294;61863;-24
2022/11/26 10:40:26;;;;;;;14.90;7.10;;;;;;;-0.47;82.46;99617.02;102008;1295;63092;-24
2022/11/26 10:43:02;;;;;;;10.30;6.40;;;;;;;-0.39;82.50;99619.89;102023;1301;76463;-24
2022/11/26 10:45:47;;;;;;;11.00;7.30;;;;;;;0.19;80.86;99620.64;102042;1301;76731;-24
2022/11/26 10:48:28;;;;;;;16.40;7.90;;;;;;;0.09;80.56;99620.94;102079;1301;75200;-24
2022/11/26 10:51:05;;;;;;;13.80;8.20;;;;;;;0.03;80.62;99620.76;101914;1304;61233;-24
2022/11/26 10:53:52;;;;;;;13.20;7.80;;;;;;;-0.32;81.75;99616.10;102010;1287;62674;-24
2022/11/26 10:56:23;;;;;;;16.10;8.80;;;;;;;-0.45;82.99;99618.83;102158;1294;76406;-24
2022/11/26 10:58:50;;;;;;;12.70;7.20;;;;;;;-0.56;83.44;99619.64;101961;1296;76498;-24
2022/11/26 11:01:18;;;;;;;11.20;6.60;;;;;;;-0.38;83.83;99623.79;101917;1302;73783;-24
2022/11/26 11:04:20;;;;;;;9.60;5.60;;;;;;;0.51;81.88;99627.35;101897;1298;62221;-24
2022/11/26 11:06:48;;;;;;;13.20;7.30;;;;;;;0.68;79.08;99625.98;102050;1297;61780;-25
2022/11/26 11:09:21;;;;;;;15.00;8.40;;;;;;;0.51;79.14;99624.48;102106;1295;76128;-25
2022/11/26 11:12:16;;;;;;;12.30;6.90;;;;;;;0.32;79.94;99630.02;102083;1304;76670;-25
2022/11/26 11:14:44;;;;;;;18.20;9.30;;;;;;;-0.05;81.86;99626.29;101960;1302;75280;-25
2022/11/26 11:17:32;;;;;;;16.10;7.90;;;;;;;-0.07;81.86;99625.17;102196;1298;61979;-25
2022/11/26 11:20:15;;;;;;;14.00;7.50;;;;;;;-0.17;82.36;99622.01;102182;1301;62469;-25
2022/11/26 11:22:43;;;;;;;11.00;5.80;;;;;;;0.16;81.19;99622.26;102137;1301;76498;-25
2022/11/26 11:25:31;;;;;;;14.90;7.70;;;;;;;0.43;79.64;99621.11;102113;1302;76694;-25
2022/11/26 11:28:28;;;;;;;12.90;7.00;;;;;;;0.25;80.12;99622.51;102041;1304;75223;-25
2022/11/26 11:30:58;;;;;;;13.30;7.60;;;;;;;-0.09;81.32;99620.78;102020;1302;61161;-25
2022/11/26 11:33:26;;;;;;;16.10;8.90;;;;;;;-0.23;82.39;99624.39;102064;1303;62810;-24
2022/11/26 11:36:00;;;;;;;9.60;5.80;;;;;;;-0.42;83.23;99622.52;101963;1296;75724;-25